Terminal Aerodrome Forecast
Issued by NWS Charleston, WV

Current Version | Previous Version | Graphics & Text | Print | Product List | Glossary On
Versions: 1 2 3 4 5 6 7 8 9 10 11 12 13 14 15 16 17 18 19 20 21 22 23 24 25 26 27 28 29
000
FTUS41 KRLX 211600 AAB
TAFPKB
TAF AMD
KPKB 211612Z 2116/2212 23006KT P6SM FEW015 BKN100
     FM211700 17006KT 4SM TSRA BR SCT012 BKN040CB
     FM212300 23005KT 5SM -SHRA BR VCTS BKN025CB
     FM220200 00000KT 6SM BR VCTS BKN040CB
     FM220500 00000KT 5SM BR BKN040
     FM221000 00000KT 2SM BR BKN035=

USA.gov is the U.S. government's official web portal to all federal, state and local government web resources and services.